Time,TemperatureF,DewpointF,PressureIn,WindDirection,WindDirectionDegrees,WindSpeedMPH,WindSpeedGustMPH,Humidity,HourlyPrecipIn,Conditions,Clouds,dailyrainin,SoftwareType,DateUTC
2013-03-25 00:00:00,61.3,27.9,29.83,WNW,292,1.1,-999.0,28,-99.99,,,0.00,Acu-Link.com,2013-03-25 07:00:00,
2013-03-25 00:15:00,59.9,25.8,29.83,NNE,22,0.0,-999.0,27,-99.99,,,0.00,Acu-Link.com,2013-03-25 07:15:00,
2013-03-25 00:30:00,60.1,29.4,29.83,SSE,157,1.1,-999.0,31,-99.99,,,0.00,Acu-Link.com,2013-03-25 07:30:00,
2013-03-25 01:31:00,58.6,28.1,29.84,WSW,247,1.7,-999.0,31,-99.99,,,0.00,Acu-Link.com,2013-03-25 08:31:00,
2013-03-25 01:46:00,59.7,29.8,29.83,West,270,3.2,-999.0,32,-99.99,,,0.00,Acu-Link.com,2013-03-25 08:46:00,
2013-03-25 02:02:00,59.5,28.8,29.83,WNW,292,0.0,-999.0,31,-99.99,,,0.00,Acu-Link.com,2013-03-25 09:02:00,
2013-03-25 02:17:00,58.5,30.9,29.83,West,270,0.0,-999.0,35,-99.99,,,0.00,Acu-Link.com,2013-03-25 09:17:00,
2013-03-25 02:32:00,58.3,30.1,29.83,NNW,337,2.7,-999.0,34,-99.99,,,0.00,Acu-Link.com,2013-03-25 09:32:00,
2013-03-25 02:47:00,57.4,30.0,29.83,South,180,0.0,-999.0,35,-99.99,,,0.00,Acu-Link.com,2013-03-25 09:47:00,
2013-03-25 03:02:00,59.0,32.1,29.83,WNW,292,2.2,-999.0,36,-99.99,,,0.00,Acu-Link.com,2013-03-25 10:02:00,
2013-03-25 03:17:00,59.2,30.9,29.82,WSW,247,1.7,-999.0,34,-99.99,,,0.00,Acu-Link.com,2013-03-25 10:17:00,
2013-03-25 03:33:00,59.5,31.1,29.82,West,270,3.2,-999.0,34,-99.99,,,0.00,Acu-Link.com,2013-03-25 10:33:00,
2013-03-25 03:48:00,59.0,30.7,29.82,WNW,292,1.7,-999.0,34,-99.99,,,0.00,Acu-Link.com,2013-03-25 10:48:00,
2013-03-25 04:03:00,58.6,30.3,29.82,WSW,247,2.2,-999.0,34,-99.99,,,0.00,Acu-Link.com,2013-03-25 11:03:00,
2013-03-25 04:18:00,58.1,29.9,29.82,WNW,292,1.7,-999.0,34,-99.99,,,0.00,Acu-Link.com,2013-03-25 11:18:00,
2013-03-25 04:34:00,57.7,29.5,29.82,NNW,337,1.7,-999.0,34,-99.99,,,0.00,Acu-Link.com,2013-03-25 11:34:00,
2013-03-25 04:49:00,57.6,29.4,29.83,North,0,2.2,-999.0,34,-99.99,,,0.00,Acu-Link.com,2013-03-25 11:49:00,
2013-03-25 05:04:00,58.1,29.2,29.83,East,90,3.7,-999.0,33,-99.99,,,0.00,Acu-Link.com,2013-03-25 12:04:00,
2013-03-25 05:19:00,58.6,28.1,29.83,West,270,2.2,-999.0,31,-99.99,,,0.00,Acu-Link.com,2013-03-25 12:19:00,
2013-03-25 05:35:00,59.2,28.6,29.83,NNW,337,4.7,-999.0,31,-99.99,,,0.00,Acu-Link.com,2013-03-25 12:35:00,
2013-03-25 05:50:00,59.4,27.1,29.83,WNW,292,3.7,-999.0,29,-99.99,,,0.00,Acu-Link.com,2013-03-25 12:50:00,
2013-03-25 06:05:00,59.0,26.8,29.84,WSW,247,2.7,-999.0,29,-99.99,,,0.00,Acu-Link.com,2013-03-25 13:05:00,
2013-03-25 06:20:00,59.2,27.0,29.84,NNE,22,4.2,-999.0,29,-99.99,,,0.00,Acu-Link.com,2013-03-25 13:20:00,
2013-03-25 06:35:00,58.6,27.3,29.84,West,270,3.7,-999.0,30,-99.99,,,0.00,Acu-Link.com,2013-03-25 13:35:00,
2013-03-25 07:21:00,58.1,26.0,29.86,NNW,337,2.2,-999.0,29,-99.99,,,0.00,Acu-Link.com,2013-03-25 14:21:00,
2013-03-25 07:37:00,58.8,25.8,29.86,NNE,22,2.7,-999.0,28,-99.99,,,0.00,Acu-Link.com,2013-03-25 14:37:00,
2013-03-25 07:52:00,62.6,26.3,29.86,SW,225,2.7,-999.0,25,-99.99,,,0.00,Acu-Link.com,2013-03-25 14:52:00,
2013-03-25 08:07:00,65.5,27.8,29.86,WSW,247,2.7,-999.0,24,-99.99,,,0.00,Acu-Link.com,2013-03-25 15:07:00,
2013-03-25 08:22:00,68.4,28.1,29.85,NNW,337,2.2,-999.0,22,-99.99,,,0.00,Acu-Link.com,2013-03-25 15:22:00,
2013-03-25 08:37:00,67.5,27.3,29.86,WNW,292,2.2,-999.0,22,-99.99,,,0.00,Acu-Link.com,2013-03-25 15:37:00,
2013-03-25 08:53:00,70.0,25.8,29.86,West,270,2.7,-999.0,19,-99.99,,,0.00,Acu-Link.com,2013-03-25 15:53:00,
2013-03-25 09:08:00,71.4,24.3,29.86,WNW,292,0.0,-999.0,17,-99.99,,,0.00,Acu-Link.com,2013-03-25 16:08:00,
2013-03-25 09:24:00,72.9,22.5,29.85,SW,225,0.0,-999.0,15,-99.99,,,0.00,Acu-Link.com,2013-03-25 16:24:00,
2013-03-25 09:39:00,74.8,16.8,29.85,West,270,0.0,-999.0,11,-99.99,,,0.00,Acu-Link.com,2013-03-25 16:39:00,
2013-03-25 09:54:00,75.9,17.6,29.85,West,270,0.0,-999.0,11,-99.99,,,0.00,Acu-Link.com,2013-03-25 16:54:00,
2013-03-25 10:10:00,77.9,19.2,29.85,SSE,157,0.0,-999.0,11,-99.99,,,0.00,Acu-Link.com,2013-03-25 17:10:00,
2013-03-25 10:25:00,81.0,16.9,29.85,East,90,0.0,-999.0,9,-99.99,,,0.00,Acu-Link.com,2013-03-25 17:25:00,
2013-03-25 10:40:00,81.9,11.8,29.85,SSW,202,0.0,-999.0,7,-99.99,,,0.00,Acu-Link.com,2013-03-25 17:40:00,
2013-03-25 10:55:00,82.6,12.3,29.85,SW,225,2.2,-999.0,7,-99.99,,,0.00,Acu-Link.com,2013-03-25 17:55:00,
2013-03-25 11:26:00,84.0,13.3,29.84,SSE,157,2.2,-999.0,7,-99.99,,,0.00,Acu-Link.com,2013-03-25 18:26:00,
2013-03-25 11:41:00,84.2,13.5,29.84,SSW,202,0.0,-999.0,7,-99.99,,,0.00,Acu-Link.com,2013-03-25 18:41:00,
2013-03-25 11:56:00,85.5,14.4,29.83,ESE,112,1.7,-999.0,7,-99.99,,,0.00,Acu-Link.com,2013-03-25 18:56:00,
2013-03-25 12:12:00,84.4,13.6,29.83,SSW,202,2.2,-999.0,7,-99.99,,,0.00,Acu-Link.com,2013-03-25 19:12:00,
2013-03-25 12:27:00,84.7,16.9,29.82,West,270,2.2,-999.0,8,-99.99,,,0.00,Acu-Link.com,2013-03-25 19:27:00,
2013-03-25 12:42:00,85.1,14.1,29.81,South,180,2.7,-999.0,7,-99.99,,,0.00,Acu-Link.com,2013-03-25 19:42:00,
2013-03-25 12:58:00,85.6,17.6,29.81,SSE,157,1.7,-999.0,8,-99.99,,,0.00,Acu-Link.com,2013-03-25 19:58:00,
2013-03-25 13:13:00,85.1,14.1,29.80,South,180,4.7,-999.0,7,-99.99,,,0.00,Acu-Link.com,2013-03-25 20:13:00,
2013-03-25 13:28:00,85.6,17.6,29.80,ESE,112,2.7,-999.0,8,-99.99,,,0.00,Acu-Link.com,2013-03-25 20:28:00,
2013-03-25 13:43:00,86.5,15.2,29.78,South,180,4.2,-999.0,7,-99.99,,,0.00,Acu-Link.com,2013-03-25 20:43:00,
2013-03-25 13:58:00,85.6,17.6,29.78,WSW,247,3.7,-999.0,8,-99.99,,,0.00,Acu-Link.com,2013-03-25 20:58:00,
2013-03-25 14:14:00,86.0,17.9,29.77,SE,135,2.7,-999.0,8,-99.99,,,0.00,Acu-Link.com,2013-03-25 21:14:00,
2013-03-25 14:29:00,86.7,18.4,29.76,SSE,157,2.7,-999.0,8,-99.99,,,0.00,Acu-Link.com,2013-03-25 21:29:00,
2013-03-25 14:44:00,86.2,18.0,29.76,South,180,2.2,-999.0,8,-99.99,,,0.00,Acu-Link.com,2013-03-25 21:44:00,
2013-03-25 14:59:00,87.4,18.9,29.74,SSW,202,2.2,-999.0,8,-99.99,,,0.00,Acu-Link.com,2013-03-25 21:59:00,
2013-03-25 15:14:00,86.9,18.5,29.74,NNW,337,1.7,-999.0,8,-99.99,,,0.00,Acu-Link.com,2013-03-25 22:14:00,
2013-03-25 15:29:00,87.1,18.7,29.73,South,180,3.7,-999.0,8,-99.99,,,0.00,Acu-Link.com,2013-03-25 22:29:00,
2013-03-25 15:44:00,87.3,21.6,29.73,South,180,2.7,-999.0,9,-99.99,,,0.00,Acu-Link.com,2013-03-25 22:44:00,
2013-03-25 16:00:00,84.0,19.1,29.73,South,180,2.2,-999.0,9,-99.99,,,0.00,Acu-Link.com,2013-03-25 23:00:00,
2013-03-25 16:15:00,86.9,21.3,29.72,ESE,112,3.2,-999.0,9,-99.99,,,0.00,Acu-Link.com,2013-03-25 23:15:00,
2013-03-25 16:30:00,85.5,20.2,29.72,West,270,1.7,-999.0,9,-99.99,,,0.00,Acu-Link.com,2013-03-25 23:30:00,
2013-03-25 16:45:00,85.6,20.3,29.72,West,270,4.2,-999.0,9,-99.99,,,0.00,Acu-Link.com,2013-03-25 23:45:00,
2013-03-25 17:01:00,84.9,19.8,29.71,SE,135,5.3,-999.0,9,-99.99,,,0.00,Acu-Link.com,2013-03-26 00:01:00,
2013-03-25 17:31:00,85.1,19.9,29.71,WSW,247,1.7,-999.0,9,-99.99,,,0.00,Acu-Link.com,2013-03-26 00:31:00,
2013-03-25 17:46:00,84.2,19.3,29.71,ESE,112,1.7,-999.0,9,-99.99,,,0.00,Acu-Link.com,2013-03-26 00:46:00,
2013-03-25 18:02:00,83.8,19.0,29.71,SSW,202,2.7,-999.0,9,-99.99,,,0.00,Acu-Link.com,2013-03-26 01:02:00,
2013-03-25 18:17:00,83.7,16.2,29.72,ESE,112,3.2,-999.0,8,-99.99,,,0.00,Acu-Link.com,2013-03-26 01:17:00,
2013-03-25 18:32:00,82.9,15.6,29.71,SSW,202,1.1,-999.0,8,-99.99,,,0.00,Acu-Link.com,2013-03-26 01:32:00,
2013-03-25 18:48:00,81.1,16.9,29.72,South,180,0.0,-999.0,9,-99.99,,,0.00,Acu-Link.com,2013-03-26 01:48:00,
2013-03-25 19:03:00,79.9,16.0,29.72,SW,225,0.0,-999.0,9,-99.99,,,0.00,Acu-Link.com,2013-03-26 02:03:00,
2013-03-25 19:18:00,78.3,17.3,29.73,SE,135,0.0,-999.0,10,-99.99,,,0.00,Acu-Link.com,2013-03-26 02:18:00,
2013-03-25 19:34:00,77.0,16.3,29.73,SSW,202,0.0,-999.0,10,-99.99,,,0.00,Acu-Link.com,2013-03-26 02:34:00,
2013-03-25 19:49:00,75.9,19.7,29.73,SSW,202,0.0,-999.0,12,-99.99,,,0.00,Acu-Link.com,2013-03-26 02:49:00,
2013-03-25 20:04:00,75.0,16.9,29.73,South,180,1.7,-999.0,11,-99.99,,,0.00,Acu-Link.com,2013-03-26 03:04:00,
2013-03-25 20:20:00,73.8,23.3,29.74,SSE,157,0.0,-999.0,15,-99.99,,,0.00,Acu-Link.com,2013-03-26 03:20:00,
2013-03-25 20:35:00,73.6,23.1,29.74,SW,225,0.0,-999.0,15,-99.99,,,0.00,Acu-Link.com,2013-03-26 03:35:00,
2013-03-25 20:50:00,72.5,23.8,29.75,SSW,202,0.0,-999.0,16,-99.99,,,0.00,Acu-Link.com,2013-03-26 03:50:00,
2013-03-25 21:06:00,71.4,21.4,29.75,WSW,247,0.0,-999.0,15,-99.99,,,0.00,Acu-Link.com,2013-03-26 04:06:00,
2013-03-25 21:51:00,72.3,26.4,29.77,West,270,2.2,-999.0,18,-99.99,,,0.00,Acu-Link.com,2013-03-26 04:51:00,
2013-03-25 22:07:00,73.0,35.1,29.77,South,180,2.7,-999.0,25,-99.99,,,0.00,Acu-Link.com,2013-03-26 05:07:00,
2013-03-25 22:22:00,73.0,38.0,29.78,NNW,337,5.8,-999.0,28,-99.99,,,0.00,Acu-Link.com,2013-03-26 05:22:00,
2013-03-25 22:37:00,72.5,37.5,29.77,SW,225,3.7,-999.0,28,-99.99,,,0.00,Acu-Link.com,2013-03-26 05:37:00,
2013-03-25 22:52:00,72.3,38.3,29.77,North,0,3.7,-999.0,29,-99.99,,,0.00,Acu-Link.com,2013-03-26 05:52:00,
2013-03-25 23:08:00,72.0,38.9,29.77,NNW,337,3.7,-999.0,30,-99.99,,,0.00,Acu-Link.com,2013-03-26 06:08:00,
2013-03-25 23:23:00,72.5,38.4,29.76,NW,315,7.8,-999.0,29,-99.99,,,0.00,Acu-Link.com,2013-03-26 06:23:00,
2013-03-25 23:38:00,72.0,39.7,29.77,West,270,4.2,-999.0,31,-99.99,,,0.00,Acu-Link.com,2013-03-26 06:38:00,
2013-03-25 23:53:00,71.1,40.5,29.77,West,270,3.2,-999.0,33,-99.99,,,0.00,Acu-Link.com,2013-03-26 06:53:00,